Time;durP1;ratioP1;P1;durP2;ratioP2;P2;SDS_P1;SDS_P2;PMS_P1;PMS_P2;Temp;Humidity;BMP_temperature;BMP_pressure;BME280_temperature;BME280_humidity;BME280_pressure;Samples;Min_cycle;Max_cycle;Signal;HPM_P1;HPM_P2
2022/11/02 00:01:19;;;;;;;13.30;3.10;;;12.20;99.90;;;;;;5038775;28;20377;-76
2022/11/02 00:03:45;;;;;;;10.02;3.00;;;12.30;99.90;;;;;;5039688;28;20119;-76
2022/11/02 00:06:10;;;;;;;12.20;2.80;;;12.20;99.90;;;;;;5039266;28;20049;-76
2022/11/02 00:08:36;;;;;;;12.32;2.72;;;12.10;99.90;;;;;;5039386;28;20041;-77
2022/11/02 00:11:01;;;;;;;13.35;2.78;;;12.40;99.90;;;;;;5039256;28;20106;-76
2022/11/02 00:13:27;;;;;;;15.45;2.95;;;12.10;99.90;;;;;;5056464;28;20052;-78
2022/11/02 00:15:53;;;;;;;11.85;2.70;;;12.10;99.90;;;;;;5056349;28;20111;-76
2022/11/02 00:18:19;;;;;;;15.90;2.78;;;12.00;99.90;;;;;;5039494;28;20049;-76
2022/11/02 00:20:44;;;;;;;13.00;2.60;;;12.10;99.90;;;;;;5039606;28;20045;-77
2022/11/02 00:23:12;;;;;;;13.98;3.10;;;12.20;99.90;;;;;;5039106;28;20049;-76
2022/11/02 00:25:44;;;;;;;12.82;3.22;;;12.10;99.90;;;;;;5056119;28;20045;-76
2022/11/02 00:28:09;;;;;;;10.48;2.70;;;12.00;99.90;;;;;;5038572;28;20453;-78
2022/11/02 00:30:36;;;;;;;15.30;3.30;;;12.00;99.90;;;;;;5056467;28;20051;-77
2022/11/02 00:33:02;;;;;;;40.78;4.32;;;12.00;99.90;;;;;;5056045;28;20134;-76
2022/11/02 00:35:28;;;;;;;18.65;3.67;;;12.00;99.90;;;;;;5055714;28;20107;-76
2022/11/02 00:37:53;;;;;;;15.73;3.10;;;12.00;99.90;;;;;;5056759;28;20045;-75
2022/11/02 00:40:19;;;;;;;13.50;2.92;;;11.80;99.90;;;;;;5055790;28;20049;-76
2022/11/02 00:42:44;;;;;;;7.28;1.85;;;11.70;99.90;;;;;;5056037;28;20124;-75
2022/11/02 00:45:10;;;;;;;11.00;2.45;;;11.70;99.90;;;;;;5056267;28;20033;-74
2022/11/02 00:47:36;;;;;;;7.05;2.15;;;11.60;99.90;;;;;;5022950;28;20095;-76
2022/11/02 00:50:02;;;;;;;10.98;2.17;;;11.50;99.90;;;;;;5055899;28;20357;-76
2022/11/02 00:52:28;;;;;;;9.93;1.85;;;11.50;99.90;;;;;;5055843;28;20041;-76
2022/11/02 00:54:53;;;;;;;7.35;1.83;;;11.40;99.90;;;;;;5055738;28;20513;-74
2022/11/02 00:57:19;;;;;;;8.88;1.60;;;11.50;99.90;;;;;;5038623;28;20132;-75
2022/11/02 00:59:45;;;;;;;6.32;1.42;;;11.30;99.90;;;;;;5055855;28;20367;-75
2022/11/02 01:02:10;;;;;;;9.80;1.77;;;11.20;99.90;;;;;;5055457;28;20088;-74
2022/11/02 01:04:36;;;;;;;8.95;2.15;;;11.20;99.90;;;;;;5055510;28;20500;-75
2022/11/02 01:07:02;;;;;;;8.15;1.65;;;11.10;99.90;;;;;;5038526;28;20410;-74
2022/11/02 01:09:28;;;;;;;7.63;1.95;;;11.10;99.90;;;;;;5055874;28;20040;-75
2022/11/02 01:11:53;;;;;;;6.28;1.63;;;11.10;99.90;;;;;;5055633;28;20446;-75
2022/11/02 01:14:20;;;;;;;7.05;1.67;;;11.00;99.90;;;;;;5055036;28;20056;-74
2022/11/02 01:16:46;;;;;;;5.65;1.38;;;11.10;99.90;;;;;;5055428;28;20041;-76
2022/11/02 01:19:13;;;;;;;4.30;1.23;;;11.00;99.90;;;;;;5038512;28;20045;-75
2022/11/02 01:21:38;;;;;;;4.78;1.40;;;10.90;99.90;;;;;;5055742;28;20084;-74
2022/11/02 01:24:05;;;;;;;3.92;1.30;;;10.90;99.90;;;;;;5037458;28;20080;-75
2022/11/02 01:26:30;;;;;;;5.68;1.45;;;10.80;99.90;;;;;;5055090;28;20049;-74
2022/11/02 01:28:56;;;;;;;5.65;1.27;;;10.90;99.90;;;;;;5055416;28;20044;-74
2022/11/02 01:31:21;;;;;;;5.60;1.42;;;10.90;99.90;;;;;;5038237;28;20077;-75
2022/11/02 01:33:47;;;;;;;3.55;1.45;;;11.10;99.90;;;;;;5037745;28;20488;-76
2022/11/02 01:36:15;;;;;;;5.13;1.85;;;10.80;99.90;;;;;;5055354;28;20056;-75
2022/11/02 01:38:41;;;;;;;6.22;1.60;;;10.80;99.90;;;;;;5054884;28;20076;-75
2022/11/02 01:41:09;;;;;;;7.03;1.70;;;10.70;99.90;;;;;;5055380;28;20069;-77
2022/11/02 01:43:35;;;;;;;4.30;1.27;;;10.70;99.90;;;;;;5037360;28;20397;-75
2022/11/02 01:46:11;;;;;;;4.70;1.15;;;10.60;99.90;;;;;;5054280;28;20083;-76
2022/11/02 01:48:47;;;;;;;6.88;1.35;;;10.60;99.90;;;;;;5037846;28;20055;-75
2022/11/02 01:51:24;;;;;;;6.47;1.70;;;10.50;99.90;;;;;;5055514;28;20053;-75
2022/11/02 01:53:51;;;;;;;4.93;1.38;;;10.50;99.90;;;;;;5054803;28;20133;-75
2022/11/02 01:56:21;;;;;;;4.45;1.48;;;10.40;99.90;;;;;;5055002;28;20041;-76
2022/11/02 01:58:53;;;;;;;5.38;1.80;;;10.40;99.90;;;;;;5054757;28;20044;-76
2022/11/02 02:01:19;;;;;;;5.55;1.45;;;10.40;99.90;;;;;;5055011;28;20140;-78
2022/11/02 02:03:46;;;;;;;6.25;2.10;;;10.30;99.90;;;;;;5054256;28;20091;-77
2022/11/02 02:06:13;;;;;;;5.43;2.28;;;10.40;99.90;;;;;;5037599;28;20474;-76
2022/11/02 02:08:44;;;;;;;8.48;2.05;;;10.40;99.90;;;;;;5055057;28;20053;-76
2022/11/02 02:11:31;;;;;;;8.27;2.53;;;10.50;99.90;;;;;;5037574;28;20045;-75
2022/11/02 02:14:03;;;;;;;11.13;3.03;;;10.40;99.90;;;;;;5054592;28;20059;-75
2022/11/02 02:17:02;;;;;;;8.80;3.00;;;10.50;99.90;;;;;;5037674;28;20045;-75
2022/11/02 02:19:46;;;;;;;17.73;3.75;;;10.50;99.90;;;;;;5054277;28;20457;-78
2022/11/02 02:22:35;;;;;;;10.02;3.38;;;10.70;99.90;;;;;;5055050;28;20049;-75
2022/11/02 02:25:37;;;;;;;9.35;3.47;;;10.60;99.90;;;;;;5035238;28;20347;-76
2022/11/02 02:28:14;;;;;;;13.88;3.47;;;10.70;99.90;;;;;;5034780;28;20089;-76
2022/11/02 02:30:47;;;;;;;15.98;4.07;;;10.70;99.90;;;;;;5034806;28;20056;-76
2022/11/02 02:33:23;;;;;;;19.63;4.60;;;11.00;99.90;;;;;;5007726;28;20041;-76
2022/11/02 02:35:57;;;;;;;17.00;4.20;;;10.80;99.90;;;;;;5054675;28;20190;-74
2022/11/02 02:38:32;;;;;;;16.23;4.22;;;10.80;99.90;;;;;;5054322;28;20135;-75
2022/11/02 02:41:13;;;;;;;16.38;4.30;;;10.90;99.90;;;;;;5054411;28;20051;-76
2022/11/02 02:43:50;;;;;;;16.55;4.47;;;10.90;99.90;;;;;;5054243;28;20037;-75
2022/11/02 02:46:24;;;;;;;12.00;3.60;;;10.90;99.90;;;;;;5054503;28;20099;-76
2022/11/02 02:48:53;;;;;;;13.98;3.40;;;11.00;99.90;;;;;;5054595;28;20473;-76
2022/11/02 02:51:29;;;;;;;15.55;4.07;;;10.90;99.90;;;;;;5036375;28;20037;-75
2022/11/02 02:54:07;;;;;;;15.60;3.50;;;11.00;99.90;;;;;;5054756;28;20041;-75
2022/11/02 02:56:43;;;;;;;12.98;3.45;;;10.90;99.90;;;;;;5055049;28;20053;-75
2022/11/02 02:59:22;;;;;;;11.85;3.22;;;10.90;99.90;;;;;;5041227;28;20064;-76
2022/11/02 03:01:48;;;;;;;13.95;2.92;;;10.90;99.90;;;;;;5057573;28;20190;-75
2022/11/02 03:04:14;;;;;;;12.50;2.78;;;10.90;99.90;;;;;;5057736;28;20096;-76
2022/11/02 03:06:48;;;;;;;10.60;2.80;;;10.90;99.90;;;;;;5058088;28;20167;-76
2022/11/02 03:09:39;;;;;;;8.55;2.45;;;10.90;99.90;;;;;;5058575;28;20083;-76
2022/11/02 03:12:11;;;;;;;8.85;2.05;;;10.90;99.90;;;;;;5057568;28;20378;-77
2022/11/02 03:15:02;;;;;;;6.03;2.00;;;10.80;99.90;;;;;;5040601;28;20052;-76
2022/11/02 03:17:42;;;;;;;9.23;2.10;;;10.80;99.90;;;;;;5040317;28;20052;-76
2022/11/02 03:20:16;;;;;;;3.88;1.67;;;10.90;99.90;;;;;;5057798;28;20052;-74
2022/11/02 03:22:44;;;;;;;5.43;1.65;;;10.70;99.90;;;;;;5057580;28;20053;-76
2022/11/02 03:25:20;;;;;;;6.18;1.45;;;10.60;99.90;;;;;;5057388;28;20037;-75
2022/11/02 03:28:09;;;;;;;5.53;1.60;;;10.90;99.90;;;;;;5057625;28;20049;-74
2022/11/02 03:30:43;;;;;;;6.45;2.20;;;10.40;99.90;;;;;;5057116;28;20040;-76
2022/11/02 03:33:24;;;;;;;;;;;10.40;99.90;;;;;;5057933;28;20049;-75
2022/11/02 03:36:05;;;;;;;6.80;1.88;;;10.30;99.90;;;;;;5057356;28;20011;-76
2022/11/02 03:38:59;;;;;;;12.93;3.10;;;10.20;99.90;;;;;;5058090;28;20049;-78
2022/11/02 03:41:27;;;;;;;11.68;3.15;;;10.30;99.90;;;;;;5037447;28;20060;-77
2022/11/02 03:43:58;;;;;;;10.07;2.40;;;10.20;99.90;;;;;;5039834;28;20126;-76
2022/11/02 03:46:26;;;;;;;7.72;1.98;;;10.20;99.90;;;;;;5057271;28;20446;-75
2022/11/02 03:48:54;;;;;;;10.30;2.25;;;10.20;99.90;;;;;;5057123;28;20071;-75
2022/11/02 03:51:22;;;;;;;8.98;2.30;;;10.10;99.90;;;;;;5056921;28;20045;-76
2022/11/02 03:54:06;;;;;;;7.88;2.38;;;10.10;99.90;;;;;;5057087;28;20049;-76
2022/11/02 03:56:45;;;;;;;8.00;2.45;;;10.10;99.90;;;;;;5057797;28;20116;-76
2022/11/02 03:59:12;;;;;;;9.02;1.98;;;10.00;99.90;;;;;;5057634;28;20045;-76
2022/11/02 04:01:47;;;;;;;13.52;2.97;;;10.10;99.90;;;;;;5022061;28;20068;-75
2022/11/02 04:04:13;;;;;;;11.93;2.30;;;10.10;99.90;;;;;;5057379;28;20144;-76
2022/11/02 04:06:41;;;;;;;11.80;2.15;;;10.10;99.90;;;;;;5057182;28;20053;-75
2022/11/02 04:09:07;;;;;;;9.88;2.00;;;10.60;99.90;;;;;;5056107;28;20045;-75
2022/11/02 04:19:46;;;;;;;13.27;1.80;;;10.10;99.90;;;;;;5056715;28;20389;-76
2022/11/02 04:27:40;;;;;;;11.43;2.28;;;10.30;99.90;;;;;;5038903;28;20052;-76
2022/11/02 04:30:07;;;;;;;14.57;2.75;;;10.10;99.90;;;;;;5056732;28;20048;-76
2022/11/02 04:35:46;;;;;;;8.40;1.80;;;10.30;99.90;;;;;;5047800;28;20084;-76
2022/11/02 04:43:43;;;;;;;12.90;2.58;;;10.30;99.90;;;;;;5056107;28;19928;-76
2022/11/02 04:46:08;;;;;;;10.35;2.58;;;10.30;99.90;;;;;;5039247;28;20060;-76
2022/11/02 04:48:34;;;;;;;9.75;2.83;;;10.50;99.90;;;;;;5056225;28;20350;-76
2022/11/02 04:50:59;;;;;;;11.68;2.50;;;10.40;99.90;;;;;;5055896;28;20099;-76
2022/11/02 04:53:25;;;;;;;11.18;2.50;;;10.40;99.90;;;;;;5038415;28;20408;-76
2022/11/02 04:55:51;;;;;;;12.20;2.85;;;10.40;99.90;;;;;;5055518;28;20120;-74
2022/11/02 04:58:17;;;;;;;13.95;2.88;;;10.50;99.90;;;;;;5022785;28;20041;-77
2022/11/02 05:00:43;;;;;;;11.98;2.35;;;10.50;99.90;;;;;;5051472;28;20056;-72
2022/11/02 05:03:08;;;;;;;11.38;2.72;;;10.50;99.90;;;;;;5056285;28;20426;-75
2022/11/02 05:05:34;;;;;;;11.23;2.70;;;10.50;99.90;;;;;;5050953;28;20077;-75
2022/11/02 05:08:00;;;;;;;11.77;2.75;;;10.50;99.90;;;;;;5055635;28;20056;-76
2022/11/02 05:10:25;;;;;;;9.90;2.72;;;10.40;99.90;;;;;;5037889;28;20037;-75
2022/11/02 05:12:58;;;;;;;13.20;2.85;;;10.50;99.90;;;;;;5055445;28;20114;-75
2022/11/02 05:15:24;;;;;;;14.45;3.38;;;10.40;99.90;;;;;;5055186;28;20041;-78
2022/11/02 05:17:50;;;;;;;12.20;2.95;;;10.50;99.90;;;;;;5055562;28;20113;-74
2022/11/02 05:20:15;;;;;;;13.80;3.45;;;10.40;99.90;;;;;;5054861;28;20052;-77
2022/11/02 05:22:41;;;;;;;13.13;3.30;;;10.40;99.90;;;;;;5046276;28;20450;-77
2022/11/02 05:25:08;;;;;;;16.80;3.85;;;10.60;99.90;;;;;;5035756;28;20041;-74
2022/11/02 05:27:34;;;;;;;17.60;3.75;;;10.40;99.90;;;;;;5034940;28;20116;-76
2022/11/02 05:29:59;;;;;;;15.73;3.25;;;10.40;99.90;;;;;;5049300;28;20417;-75
2022/11/02 05:32:26;;;;;;;15.80;4.20;;;10.40;99.90;;;;;;5053344;28;20067;-75
2022/11/02 05:34:51;;;;;;;15.82;4.10;;;10.40;99.90;;;;;;5054939;28;20048;-74
2022/11/02 05:37:17;;;;;;;11.75;3.25;;;10.40;99.90;;;;;;5054600;28;20045;-74
2022/11/02 05:39:43;;;;;;;16.67;4.00;;;10.40;99.90;;;;;;5054982;28;20127;-73
2022/11/02 05:42:09;;;;;;;14.07;4.07;;;10.40;99.90;;;;;;5054754;28;20052;-74
2022/11/02 05:44:35;;;;;;;13.32;3.30;;;10.50;99.90;;;;;;5037698;28;20138;-74
2022/11/02 05:47:01;;;;;;;15.43;4.07;;;10.40;99.90;;;;;;5055025;28;20112;-75
2022/11/02 05:49:26;;;;;;;16.95;3.80;;;10.30;99.90;;;;;;5054864;28;20041;-74
2022/11/02 05:51:52;;;;;;;12.85;3.47;;;10.30;99.90;;;;;;5054397;28;20124;-75
2022/11/02 05:54:17;;;;;;;18.15;3.67;;;10.30;99.90;;;;;;5055409;28;20102;-75
2022/11/02 05:56:43;;;;;;;19.38;4.00;;;10.30;99.90;;;;;;5037672;28;20491;-74
2022/11/02 05:59:09;;;;;;;22.70;3.88;;;10.20;99.90;;;;;;5054874;28;20042;-73
2022/11/02 06:01:34;;;;;;;19.10;3.60;;;10.20;99.90;;;;;;5054716;28;20053;-72
2022/11/02 06:04:00;;;;;;;18.52;3.60;;;10.20;99.90;;;;;;5037370;28;20060;-74
2022/11/02 06:06:25;;;;;;;16.70;3.33;;;10.30;99.90;;;;;;5054569;28;20037;-74
2022/11/02 06:08:51;;;;;;;18.10;3.55;;;10.20;99.90;;;;;;5054720;28;20106;-75
2022/11/02 06:11:16;;;;;;;13.35;3.80;;;10.20;99.90;;;;;;5054331;28;20390;-75
2022/11/02 06:13:42;;;;;;;16.58;3.25;;;10.10;99.90;;;;;;5054834;28;20349;-74
2022/11/02 06:16:10;;;;;;;13.02;3.38;;;10.10;99.90;;;;;;5054673;28;20056;-75
2022/11/02 06:18:37;;;;;;;15.45;4.13;;;10.10;99.90;;;;;;5054613;28;20400;-73
2022/11/02 06:21:03;;;;;;;17.45;3.67;;;10.20;99.90;;;;;;5055089;28;20056;-75
2022/11/02 06:23:29;;;;;;;16.17;3.63;;;10.20;99.90;;;;;;5054251;28;20140;-74
2022/11/02 06:25:56;;;;;;;13.05;3.00;;;10.40;99.90;;;;;;5054664;28;20119;-75
2022/11/02 06:28:23;;;;;;;15.10;3.53;;;10.10;99.90;;;;;;5054674;28;20127;-74
2022/11/02 06:30:49;;;;;;;13.48;3.47;;;10.10;99.90;;;;;;5054771;28;20056;-76
2022/11/02 06:33:15;;;;;;;15.93;3.50;;;10.10;99.90;;;;;;5057972;28;20067;-74
2022/11/02 06:35:49;;;;;;;13.40;3.53;;;10.10;99.90;;;;;;5058708;28;20068;-75
2022/11/02 06:38:15;;;;;;;18.67;3.58;;;10.20;99.90;;;;;;5058403;28;20040;-74
2022/11/02 06:40:41;;;;;;;17.80;4.38;;;10.20;99.90;;;;;;5058544;28;20045;-73
2022/11/02 06:43:06;;;;;;;21.10;4.40;;;10.30;99.90;;;;;;5057933;28;20051;-72
2022/11/02 06:45:32;;;;;;;17.50;4.13;;;10.30;99.90;;;;;;5058415;28;20053;-72
2022/11/02 06:47:58;;;;;;;17.25;4.20;;;10.30;99.90;;;;;;5058531;28;20128;-74
2022/11/02 06:50:23;;;;;;;20.73;4.95;;;10.40;99.90;;;;;;5040683;28;20437;-73
2022/11/02 06:52:50;;;;;;;14.98;4.55;;;10.50;99.90;;;;;;5058148;28;20113;-74
2022/11/02 06:55:16;;;;;;;19.30;4.13;;;10.50;99.90;;;;;;5040923;28;20114;-75
2022/11/02 06:57:44;;;;;;;15.23;3.95;;;10.50;99.90;;;;;;5058087;28;20044;-75
2022/11/02 07:00:17;;;;;;;18.35;4.25;;;10.50;99.90;;;;;;5057810;28;20065;-75
2022/11/02 07:02:44;;;;;;;18.00;4.20;;;10.50;99.90;;;;;;5057645;28;20064;-73
2022/11/02 07:05:09;;;;;;;17.85;4.20;;;10.60;99.90;;;;;;5040378;28;20049;-73
2022/11/02 07:07:35;;;;;;;17.33;4.57;;;10.60;99.90;;;;;;5058313;28;20357;-74
2022/11/02 07:10:01;;;;;;;18.60;4.32;;;10.60;99.90;;;;;;5058104;28;20047;-73
2022/11/02 07:12:26;;;;;;;20.73;4.50;;;10.70;99.90;;;;;;5057436;28;20430;-73
2022/11/02 07:14:52;;;;;;;13.90;3.75;;;10.70;99.90;;;;;;5040427;28;20053;-74
2022/11/02 07:17:17;;;;;;;20.13;3.97;;;10.70;99.90;;;;;;5039916;28;20102;-75
2022/11/02 07:19:43;;;;;;;16.08;3.83;;;10.80;99.90;;;;;;5039722;28;20111;-75
2022/11/02 07:22:09;;;;;;;22.13;4.28;;;10.70;99.90;;;;;;5057610;28;20036;-74
2022/11/02 07:24:34;;;;;;;19.35;4.00;;;11.00;99.90;;;;;;5057630;28;20068;-76
2022/11/02 07:27:00;;;;;;;17.90;3.53;;;10.70;99.90;;;;;;5057689;28;20072;-74
2022/11/02 07:29:25;;;;;;;15.55;3.72;;;10.80;99.90;;;;;;5057408;28;20128;-75
2022/11/02 07:31:51;;;;;;;16.88;3.85;;;10.80;99.90;;;;;;5057772;28;20343;-74
2022/11/02 07:34:16;;;;;;;18.15;3.80;;;10.80;99.90;;;;;;5057595;28;20041;-75
2022/11/02 07:36:42;;;;;;;20.17;4.18;;;10.90;99.90;;;;;;5040163;28;20061;-75
2022/11/02 07:39:08;;;;;;;17.63;4.00;;;10.90;99.90;;;;;;5057190;28;20048;-74
2022/11/02 07:41:34;;;;;;;16.73;4.07;;;10.90;99.90;;;;;;5057008;28;20047;-74
2022/11/02 07:44:00;;;;;;;18.98;3.80;;;10.90;99.90;;;;;;5056324;28;20057;-75
2022/11/02 07:46:26;;;;;;;17.02;3.55;;;10.90;99.90;;;;;;5057069;28;20402;-74
2022/11/02 07:48:51;;;;;;;16.23;3.72;;;10.90;99.90;;;;;;5057114;28;20055;-74
2022/11/02 07:51:17;;;;;;;15.05;3.45;;;10.90;99.90;;;;;;5039410;28;20521;-74
2022/11/02 07:53:43;;;;;;;17.63;3.78;;;10.90;99.90;;;;;;5056474;28;20055;-74
2022/11/02 07:56:09;;;;;;;19.85;3.65;;;10.90;99.90;;;;;;5057341;28;20335;-75
2022/11/02 07:58:35;;;;;;;18.45;3.65;;;10.80;99.90;;;;;;5056763;28;20404;-75
2022/11/02 08:01:01;;;;;;;15.95;3.28;;;11.30;99.90;;;;;;5057169;28;20063;-74
2022/11/02 08:03:28;;;;;;;13.60;3.40;;;10.90;99.90;;;;;;5056527;28;20127;-74
2022/11/02 08:05:53;;;;;;;18.02;3.00;;;10.90;99.90;;;;;;5056630;28;20099;-74
2022/11/02 08:08:21;;;;;;;18.58;3.72;;;11.10;99.90;;;;;;5039563;28;20477;-74
2022/11/02 08:10:49;;;;;;;17.75;3.55;;;11.20;99.90;;;;;;5056513;28;20041;-73
2022/11/02 08:13:17;;;;;;;16.17;3.83;;;11.30;99.90;;;;;;5056177;28;20516;-74
2022/11/02 08:15:43;;;;;;;18.15;3.22;;;11.30;99.90;;;;;;5056633;28;20052;-75
2022/11/02 08:18:13;;;;;;;12.63;3.17;;;11.40;99.90;;;;;;5056381;28;20067;-74
2022/11/02 08:20:39;;;;;;;11.45;2.75;;;11.50;99.90;;;;;;5056418;28;20049;-75
2022/11/02 08:23:06;;;;;;;13.05;2.95;;;11.50;99.90;;;;;;5056187;28;20079;-74
2022/11/02 08:25:32;;;;;;;10.77;3.05;;;11.60;99.90;;;;;;5057086;28;20113;-74
2022/11/02 08:27:59;;;;;;;16.55;2.85;;;11.60;99.90;;;;;;5038868;28;20049;-73
2022/11/02 08:30:26;;;;;;;16.60;3.05;;;11.70;99.90;;;;;;5056472;28;20053;-75
2022/11/02 08:32:51;;;;;;;14.40;3.17;;;11.70;99.90;;;;;;5056148;28;20071;-73
2022/11/02 08:35:17;;;;;;;11.23;2.50;;;11.80;99.90;;;;;;5056247;28;20048;-73
2022/11/02 08:37:43;;;;;;;12.05;2.13;;;12.00;99.90;;;;;;5055991;28;20136;-74
2022/11/02 08:40:09;;;;;;;13.02;3.28;;;11.90;99.90;;;;;;5039211;28;20037;-75
2022/11/02 08:42:37;;;;;;;9.57;2.80;;;11.80;99.90;;;;;;5055727;28;20576;-74
2022/11/02 08:45:07;;;;;;;18.30;3.22;;;11.80;99.90;;;;;;5056124;28;20096;-74
2022/11/02 08:47:32;;;;;;;12.15;2.67;;;11.80;99.90;;;;;;5055937;28;20078;-74
2022/11/02 08:49:58;;;;;;;10.75;2.45;;;12.00;99.90;;;;;;5038093;28;20049;-75
2022/11/02 08:52:23;;;;;;;8.38;2.38;;;11.80;99.90;;;;;;5055514;28;20353;-73
2022/11/02 08:54:49;;;;;;;11.63;2.17;;;11.80;99.90;;;;;;5055726;28;20127;-75
2022/11/02 08:57:14;;;;;;;10.48;2.42;;;11.70;99.90;;;;;;5055800;28;20052;-74
2022/11/02 08:59:40;;;;;;;9.77;2.60;;;11.80;99.90;;;;;;5055769;28;20055;-74
2022/11/02 09:02:05;;;;;;;9.10;2.70;;;11.70;99.90;;;;;;5054977;28;20051;-74
2022/11/02 09:04:31;;;;;;;12.73;2.47;;;11.60;99.90;;;;;;5055900;28;20049;-74
2022/11/02 09:06:56;;;;;;;9.10;2.40;;;11.60;99.90;;;;;;5055542;28;20099;-74
2022/11/02 09:09:22;;;;;;;8.63;2.20;;;11.50;99.90;;;;;;5055816;28;20103;-73
2022/11/02 09:11:49;;;;;;;9.40;2.53;;;11.40;99.90;;;;;;5055186;28;20045;-74
2022/11/02 09:14:15;;;;;;;9.02;2.50;;;11.40;99.90;;;;;;5054896;28;20373;-74
2022/11/02 09:16:40;;;;;;;9.77;2.40;;;11.40;99.90;;;;;;5055285;28;20055;-73
2022/11/02 09:19:06;;;;;;;14.75;2.60;;;11.40;99.90;;;;;;5037600;28;20361;-74
2022/11/02 09:21:31;;;;;;;13.15;2.72;;;11.50;99.90;;;;;;5055585;28;20131;-77
2022/11/02 09:23:57;;;;;;;11.35;2.60;;;11.70;99.90;;;;;;5055732;28;20056;-74
2022/11/02 09:26:23;;;;;;;13.15;2.88;;;11.90;99.90;;;;;;5037829;28;20044;-74
2022/11/02 09:28:48;;;;;;;15.75;3.35;;;12.20;99.90;;;;;;5038393;28;20110;-73
2022/11/02 09:31:14;;;;;;;13.00;2.85;;;12.20;99.90;;;;;;5055121;28;20045;-75
2022/11/02 09:33:39;;;;;;;10.43;2.67;;;12.20;99.90;;;;;;5054158;28;20353;-74
2022/11/02 09:36:05;;;;;;;11.02;2.70;;;12.30;99.90;;;;;;5055085;28;20353;-73
2022/11/02 09:38:31;;;;;;;13.55;3.30;;;12.30;99.90;;;;;;5055017;28;20048;-74
2022/11/02 09:40:57;;;;;;;13.65;2.97;;;12.20;99.90;;;;;;5054516;28;20045;-73
2022/11/02 09:43:44;;;;;;;13.48;2.75;;;12.20;99.90;;;;;;5054403;28;20124;-77
2022/11/02 09:46:18;;;;;;;13.80;2.90;;;12.20;99.90;;;;;;5037567;28;20041;-74
2022/11/02 09:48:55;;;;;;;14.85;3.17;;;12.20;99.90;;;;;;5037770;28;20056;-74
2022/11/02 09:51:30;;;;;;;10.82;2.60;;;12.30;99.90;;;;;;5055128;28;20045;-75
2022/11/02 09:54:08;;;;;;;13.20;2.65;;;12.40;99.90;;;;;;5035244;28;20041;-72
2022/11/02 09:56:34;;;;;;;16.10;2.63;;;12.40;99.90;;;;;;5017876;28;20128;-74
2022/11/02 09:59:04;;;;;;;14.95;2.45;;;12.40;99.90;;;;;;5034810;28;20041;-75
2022/11/02 10:01:36;;;;;;;8.75;2.40;;;12.40;99.90;;;;;;5017585;28;20054;-73
2022/11/02 10:04:43;;;;;;;11.63;3.03;;;12.40;99.90;;;;;;5035220;28;20037;-74
2022/11/02 10:07:25;;;;;;;13.30;3.00;;;12.40;99.90;;;;;;4948427;28;20051;-74
2022/11/02 10:09:58;;;;;;;13.48;2.35;;;12.40;99.90;;;;;;5041450;28;20049;-75
2022/11/02 10:12:27;;;;;;;11.52;2.70;;;12.40;99.90;;;;;;5048972;28;20086;-75
2022/11/02 10:15:05;;;;;;;11.45;2.20;;;12.30;99.90;;;;;;5061378;28;20413;-75
2022/11/02 10:17:35;;;;;;;12.60;2.80;;;12.30;99.90;;;;;;5061633;28;20346;-73
2022/11/02 10:20:10;;;;;;;12.77;2.80;;;12.30;99.90;;;;;;5043660;28;20076;-73
2022/11/02 10:22:40;;;;;;;13.77;2.97;;;12.20;99.90;;;;;;5061478;28;20398;-74
2022/11/02 10:25:06;;;;;;;12.85;2.53;;;12.10;99.90;;;;;;5061169;28;20052;-74
2022/11/02 10:27:39;;;;;;;10.52;2.67;;;12.10;99.90;;;;;;5043306;28;20041;-75
2022/11/02 10:30:07;;;;;;;14.32;2.63;;;12.10;99.90;;;;;;5061093;28;20362;-74
2022/11/02 10:32:35;;;;;;;13.93;2.78;;;12.20;99.90;;;;;;5039184;28;20508;-75
2022/11/02 10:35:06;;;;;;;11.65;2.45;;;12.20;99.90;;;;;;5024704;28;20119;-75
2022/11/02 10:38:07;;;;;;;13.48;2.58;;;12.30;99.90;;;;;;5024584;28;20045;-76
2022/11/02 10:40:58;;;;;;;12.63;3.22;;;12.30;99.90;;;;;;5041442;28;20113;-74
2022/11/02 10:43:37;;;;;;;13.35;2.67;;;12.30;99.90;;;;;;5060182;28;20052;-75
2022/11/02 10:46:20;;;;;;;12.13;2.50;;;12.30;99.90;;;;;;5061295;28;20053;-74
2022/11/02 10:48:52;;;;;;;;;;;12.30;99.90;;;;;;5043872;28;20102;-75
2022/11/02 10:51:18;;;;;;;13.55;2.90;;;12.20;99.90;;;;;;5060810;28;19931;-76
2022/11/02 10:53:46;;;;;;;13.40;3.08;;;12.40;99.90;;;;;;5061315;28;20051;-73
2022/11/02 10:56:30;;;;;;;14.77;2.92;;;12.30;99.90;;;;;;5061213;28;20060;-73
2022/11/02 10:58:59;;;;;;;12.60;2.47;;;12.20;99.90;;;;;;5044016;28;20105;-75
2022/11/02 11:01:26;;;;;;;11.50;2.45;;;12.10;99.90;;;;;;5042653;28;20053;-73
2022/11/02 11:03:53;;;;;;;14.73;2.70;;;12.20;99.90;;;;;;5061043;28;20457;-75
2022/11/02 11:06:19;;;;;;;15.60;3.13;;;12.20;99.90;;;;;;5043898;28;20041;-75
2022/11/02 11:08:50;;;;;;;12.57;3.00;;;12.20;99.90;;;;;;5061305;28;20390;-74
2022/11/02 11:11:36;;;;;;;14.48;2.75;;;12.20;99.90;;;;;;5043261;28;20063;-74
2022/11/02 11:14:06;;;;;;;14.48;3.55;;;12.20;99.90;;;;;;5060848;28;20142;-74
2022/11/02 11:16:45;;;;;;;13.30;2.85;;;12.20;99.90;;;;;;5061108;28;20400;-75
2022/11/02 11:19:33;;;;;;;16.83;3.03;;;12.20;99.90;;;;;;5040663;28;20060;-76
2022/11/02 11:21:59;;;;;;;14.13;2.88;;;12.20;99.90;;;;;;5057291;28;20052;-75
2022/11/02 11:24:30;;;;;;;12.63;2.78;;;12.20;99.90;;;;;;5057813;28;20350;-75
2022/11/02 11:27:03;;;;;;;10.27;2.78;;;12.20;99.90;;;;;;5057660;28;20055;-74
2022/11/02 11:29:31;;;;;;;12.88;2.90;;;12.10;99.90;;;;;;5057627;28;20060;-74
2022/11/02 11:31:59;;;;;;;10.73;2.60;;;12.00;99.90;;;;;;5057134;28;20037;-75
2022/11/02 11:34:30;;;;;;;10.32;2.25;;;12.00;99.90;;;;;;5057076;28;20048;-74
2022/11/02 11:37:13;;;;;;;13.32;2.75;;;12.00;99.90;;;;;;5057382;28;20138;-73
2022/11/02 11:39:42;;;;;;;13.20;2.92;;;12.20;99.90;;;;;;5057465;28;20078;-74
2022/11/02 11:42:19;;;;;;;11.70;2.55;;;12.30;99.90;;;;;;5039384;28;20469;-72
2022/11/02 11:44:53;;;;;;;12.07;2.45;;;12.50;99.90;;;;;;5006004;28;20064;-73
2022/11/02 11:47:28;;;;;;;12.80;3.30;;;12.70;99.90;;;;;;5057398;28;20386;-74
2022/11/02 11:49:55;;;;;;;8.63;2.00;;;12.80;99.90;;;;;;5047939;28;20361;-76
2022/11/02 11:52:27;;;;;;;10.85;2.10;;;12.90;99.90;;;;;;5019621;28;20529;-75
2022/11/02 11:54:56;;;;;;;11.02;2.20;;;13.10;99.90;;;;;;5019369;28;20115;-74
2022/11/02 11:57:26;;;;;;;8.77;2.25;;;13.00;99.90;;;;;;5019928;28;20103;-73
2022/11/02 11:59:54;;;;;;;8.95;2.33;;;13.00;99.90;;;;;;5044751;28;20154;-74
2022/11/02 12:02:24;;;;;;;11.63;2.33;;;13.10;99.90;;;;;;5040204;28;20048;-74
2022/11/02 12:04:51;;;;;;;10.68;1.70;;;13.10;99.90;;;;;;5057226;28;20051;-75
2022/11/02 12:07:50;;;;;;;9.50;2.63;;;13.20;99.90;;;;;;5039366;28;20041;-74
2022/11/02 12:10:21;;;;;;;12.35;2.33;;;13.20;99.90;;;;;;5056671;28;20065;-74
2022/11/02 12:12:56;;;;;;;11.13;2.20;;;13.20;99.90;;;;;;5039693;28;20053;-74
2022/11/02 12:15:24;;;;;;;11.68;2.20;;;13.10;99.90;;;;;;5039308;28;20346;-74
2022/11/02 12:18:14;;;;;;;11.30;2.28;;;13.10;99.90;;;;;;5056561;28;20457;-74
2022/11/02 12:21:02;;;;;;;11.27;2.10;;;13.00;99.90;;;;;;5056163;28;20071;-73
2022/11/02 12:23:47;;;;;;;9.80;2.30;;;13.00;99.90;;;;;;5056845;28;20449;-76
2022/11/02 12:26:24;;;;;;;11.00;2.33;;;13.00;99.90;;;;;;5056779;28;20099;-76
2022/11/02 12:29:16;;;;;;;13.63;2.70;;;13.00;99.90;;;;;;5056693;28;20045;-74
2022/11/02 12:31:59;;;;;;;15.52;2.60;;;13.10;99.90;;;;;;5036169;28;20053;-74
2022/11/02 12:34:57;;;;;;;18.05;3.05;;;13.10;99.90;;;;;;5019171;28;20064;-74
2022/11/02 12:37:39;;;;;;;11.00;2.45;;;13.20;99.90;;;;;;5036330;28;20056;-77
2022/11/02 12:40:26;;;;;;;11.68;2.25;;;13.20;99.90;;;;;;5045158;28;20116;-76
2022/11/02 12:43:00;;;;;;;10.68;2.08;;;13.30;99.90;;;;;;5056242;28;20115;-74
2022/11/02 12:45:55;;;;;;;14.85;2.30;;;13.30;99.90;;;;;;5056338;28;20124;-75
2022/11/02 12:48:34;;;;;;;11.43;2.47;;;13.40;99.90;;;;;;5056118;28;20135;-75
2022/11/02 12:51:08;;;;;;;8.27;2.03;;;13.40;99.90;;;;;;5038896;28;20052;-78
2022/11/02 12:53:49;;;;;;;11.45;2.65;;;13.40;99.90;;;;;;5038161;28;20045;-74
2022/11/02 12:56:38;;;;;;;10.95;3.15;;;13.40;99.90;;;;;;5038579;28;20044;-73
2022/11/02 12:59:04;;;;;;;11.88;2.47;;;13.40;99.90;;;;;;5042716;28;20057;-75
2022/11/02 13:01:30;;;;;;;15.70;3.35;;;13.40;99.90;;;;;;5056490;28;20406;-77
2022/11/02 13:04:17;;;;;;;10.10;3.08;;;13.50;99.90;;;;;;5038152;28;20053;-75
2022/11/02 13:06:46;;;;;;;11.07;2.25;;;13.50;99.90;;;;;;5055259;28;20060;-75
2022/11/02 13:09:22;;;;;;;13.40;2.38;;;13.50;99.90;;;;;;5055373;28;20045;-74
2022/11/02 13:11:55;;;;;;;13.90;2.33;;;13.40;99.90;;;;;;5056415;28;20358;-74
2022/11/02 13:14:23;;;;;;;15.67;2.60;;;13.50;99.90;;;;;;5056347;28;20052;-74
2022/11/02 13:17:00;;;;;;;12.77;3.08;;;13.50;99.90;;;;;;5038862;28;20064;-75
2022/11/02 13:19:37;;;;;;;10.52;2.35;;;13.40;99.90;;;;;;5055400;28;20037;-75